Time;durP1;ratioP1;P1;durP2;ratioP2;P2;SDS_P1;SDS_P2;PMS_P1;PMS_P2;Temp;Humidity;BMP_temperature;BMP_pressure;BME280_temperature;BME280_humidity;BME280_pressure;Samples;Min_cycle;Max_cycle;Signal;HPM_P1;HPM_P2
2022/04/11 00:02:23;;;;;;;1.70;1.20;;;6.10;99.90;;;;;;5020165;28;20481;-60
2022/04/11 00:04:50;;;;;;;5.33;1.87;;;6.00;99.90;;;;;;5019285;28;20456;-65
2022/04/11 00:07:17;;;;;;;3.57;1.60;;;6.00;99.90;;;;;;5019563;28;20493;-59
2022/04/11 00:09:47;;;;;;;4.00;1.33;;;6.00;99.90;;;;;;5019712;28;20449;-53
2022/04/11 00:12:13;;;;;;;3.53;1.20;;;5.90;99.90;;;;;;5019573;28;20438;-55
2022/04/11 00:14:42;;;;;;;5.27;1.30;;;5.90;99.90;;;;;;5019299;28;20437;-55
2022/04/11 00:17:09;;;;;;;2.50;1.43;;;5.90;99.90;;;;;;5018855;28;20450;-56
2022/04/11 00:19:36;;;;;;;6.67;1.50;;;5.90;99.90;;;;;;5019139;28;20458;-55
2022/04/11 00:22:03;;;;;;;6.67;1.73;;;5.90;99.90;;;;;;5019243;28;20477;-54
2022/04/11 00:24:29;;;;;;;5.43;1.60;;;5.90;99.90;;;;;;5019036;28;20430;-52
2022/04/11 00:26:59;;;;;;;7.00;3.07;;;5.90;99.90;;;;;;5018806;28;20469;-53
2022/04/11 00:29:26;;;;;;;4.90;1.50;;;5.90;99.90;;;;;;5019392;28;20451;-55
2022/04/11 00:31:52;;;;;;;3.40;1.20;;;5.90;99.90;;;;;;5019470;28;20508;-58
2022/04/11 00:34:19;;;;;;;3.10;1.27;;;5.90;99.90;;;;;;5019234;28;20449;-57
2022/04/11 00:36:46;;;;;;;2.43;1.20;;;5.80;99.90;;;;;;5019154;28;20462;-57
2022/04/11 00:39:12;;;;;;;3.30;1.60;;;5.80;99.90;;;;;;5018887;28;20430;-55
2022/04/11 00:41:39;;;;;;;3.33;1.67;;;5.80;99.90;;;;;;5018534;28;20470;-57
2022/04/11 00:44:07;;;;;;;6.67;1.53;;;5.70;99.90;;;;;;5018690;28;20442;-55
2022/04/11 00:46:34;;;;;;;5.27;2.00;;;5.70;99.90;;;;;;5018462;28;20497;-54
2022/04/11 00:49:01;;;;;;;6.90;1.30;;;5.70;99.90;;;;;;5018416;28;20479;-52
2022/04/11 00:51:29;;;;;;;8.30;2.07;;;5.70;99.90;;;;;;5018460;28;20497;-56
2022/04/11 00:53:59;;;;;;;2.80;1.33;;;5.60;99.90;;;;;;5018432;28;20450;-51
2022/04/11 00:56:28;;;;;;;1.87;1.30;;;5.60;99.90;;;;;;5017987;28;20486;-50
2022/04/11 00:58:55;;;;;;;4.33;1.30;;;5.60;99.90;;;;;;5018019;28;20514;-55
2022/04/11 01:01:23;;;;;;;1.73;1.23;;;5.60;99.90;;;;;;5017847;28;20504;-55
2022/04/11 01:03:51;;;;;;;2.77;1.43;;;5.50;99.90;;;;;;5017925;28;20438;-52
2022/04/11 01:06:17;;;;;;;1.50;1.17;;;5.50;99.90;;;;;;5018512;28;20476;-56
2022/04/11 01:08:44;;;;;;;3.80;1.27;;;5.50;99.90;;;;;;5018520;28;20481;-53
2022/04/11 01:11:11;;;;;;;2.20;1.17;;;5.40;99.90;;;;;;5017919;28;20441;-54
2022/04/11 01:13:37;;;;;;;9.13;1.50;;;5.40;99.90;;;;;;5018661;28;20434;-57
2022/04/11 01:16:06;;;;;;;5.73;1.80;;;5.40;99.90;;;;;;5018326;28;20461;-53
2022/04/11 01:18:38;;;;;;;3.10;1.20;;;5.30;99.90;;;;;;5018189;28;20426;-57
2022/04/11 01:21:07;;;;;;;2.70;1.17;;;5.20;99.90;;;;;;5017938;28;20461;-60
2022/04/11 01:23:35;;;;;;;5.50;1.37;;;5.20;99.90;;;;;;5018171;28;20891;-54
2022/04/11 01:26:03;;;;;;;4.47;1.43;;;5.20;99.90;;;;;;5018238;28;20462;-54
2022/04/11 01:28:31;;;;;;;7.70;2.43;;;5.10;99.90;;;;;;5018027;28;20468;-56
2022/04/11 01:30:58;;;;;;;4.97;1.03;;;5.10;99.90;;;;;;5017663;28;20442;-55
2022/04/11 01:33:26;;;;;;;2.10;1.13;;;5.10;99.90;;;;;;5017996;28;20434;-55
2022/04/11 01:35:53;;;;;;;2.13;1.50;;;5.10;99.90;;;;;;5017477;28;20446;-53
2022/04/11 01:38:20;;;;;;;2.27;1.30;;;5.10;99.90;;;;;;5017407;28;20470;-52
2022/04/11 01:40:53;;;;;;;6.83;1.80;;;5.00;99.90;;;;;;5017157;28;20438;-50
2022/04/11 01:43:20;;;;;;;2.80;1.10;;;5.00;99.90;;;;;;5016976;28;20450;-54
2022/04/11 01:45:47;;;;;;;4.50;1.40;;;5.00;99.90;;;;;;5017695;28;20551;-50
2022/04/11 01:48:13;;;;;;;5.33;1.27;;;4.90;99.90;;;;;;5017620;28;20442;-52
2022/04/11 01:50:40;;;;;;;4.30;1.23;;;4.90;99.90;;;;;;5017559;28;20434;-54
2022/04/11 01:53:08;;;;;;;5.20;1.97;;;4.90;99.90;;;;;;5017457;28;20430;-55
2022/04/11 01:55:35;;;;;;;4.70;2.37;;;4.90;99.90;;;;;;5017956;28;20448;-51
2022/04/11 01:58:03;;;;;;;3.00;1.20;;;4.90;99.90;;;;;;5018198;28;20486;-52
2022/04/11 02:00:30;;;;;;;1.70;1.20;;;5.00;99.90;;;;;;5017967;28;20438;-56
2022/04/11 02:02:58;;;;;;;2.17;1.40;;;4.90;99.90;;;;;;5017605;28;20481;-54
2022/04/11 02:05:25;;;;;;;6.10;2.00;;;4.90;99.90;;;;;;5017706;28;20473;-54
2022/04/11 02:07:52;;;;;;;3.93;1.40;;;4.90;99.90;;;;;;5017723;28;20447;-58
2022/04/11 02:10:18;;;;;;;10.10;3.60;;;4.90;99.90;;;;;;5016899;28;20440;-55
2022/04/11 02:12:47;;;;;;;7.13;1.70;;;4.90;99.90;;;;;;5017222;28;20493;-52
2022/04/11 02:15:15;;;;;;;3.43;1.50;;;4.90;99.90;;;;;;5017033;28;20465;-50
2022/04/11 02:17:42;;;;;;;3.20;1.30;;;4.90;99.90;;;;;;5016710;28;20496;-53
2022/04/11 02:20:11;;;;;;;7.83;1.70;;;4.90;99.90;;;;;;5016998;28;20442;-51
2022/04/11 02:22:48;;;;;;;4.67;1.90;;;4.90;99.90;;;;;;5017230;28;20477;-53
2022/04/11 02:25:20;;;;;;;6.67;1.47;;;4.80;99.90;;;;;;5016741;28;20438;-51
2022/04/11 02:27:47;;;;;;;4.00;1.10;;;4.70;99.90;;;;;;5016595;28;20482;-52
2022/04/11 02:30:16;;;;;;;5.10;1.90;;;4.70;99.90;;;;;;5017178;28;20458;-51
2022/04/11 02:32:44;;;;;;;2.90;1.80;;;4.60;99.90;;;;;;5016813;28;20529;-54
2022/04/11 02:35:11;;;;;;;3.03;1.33;;;4.70;99.90;;;;;;5017025;28;20485;-56
2022/04/11 02:37:37;;;;;;;11.80;1.50;;;4.70;99.90;;;;;;5016338;28;20465;-57
2022/04/11 02:40:07;;;;;;;1.77;1.50;;;4.70;99.90;;;;;;5016920;28;20446;-53
2022/04/11 02:42:34;;;;;;;3.07;2.47;;;4.70;99.90;;;;;;5016596;28;20569;-52
2022/04/11 02:45:01;;;;;;;3.00;1.23;;;4.70;99.90;;;;;;5016689;28;20466;-57
2022/04/11 02:47:30;;;;;;;3.83;1.97;;;4.70;99.90;;;;;;5016469;28;20468;-54
2022/04/11 02:49:56;;;;;;;3.37;1.23;;;4.80;99.90;;;;;;5016298;28;20481;-57
2022/04/11 02:52:23;;;;;;;3.40;1.53;;;4.80;99.90;;;;;;5016306;28;20477;-54
2022/04/11 02:54:50;;;;;;;2.10;1.37;;;4.80;99.90;;;;;;5016414;28;20449;-54
2022/04/11 02:57:16;;;;;;;3.83;1.60;;;4.80;99.90;;;;;;5016437;28;20477;-57
2022/04/11 02:59:43;;;;;;;1.97;1.33;;;4.80;99.90;;;;;;5016578;28;20484;-53
2022/04/11 03:02:11;;;;;;;5.87;1.60;;;4.80;99.90;;;;;;5015932;28;20472;-55
2022/04/11 03:04:41;;;;;;;9.67;2.50;;;4.80;99.90;;;;;;5016459;28;20532;-55
2022/04/11 03:07:08;;;;;;;3.77;1.60;;;4.80;99.90;;;;;;5016433;28;20477;-57
2022/04/11 03:09:35;;;;;;;11.63;1.90;;;4.80;99.90;;;;;;5016559;28;20446;-53
2022/04/11 03:12:01;;;;;;;3.20;1.53;;;4.80;99.90;;;;;;5016361;28;20505;-54
2022/04/11 03:14:28;;;;;;;7.13;2.17;;;4.80;99.90;;;;;;5016159;28;20442;-56
2022/04/11 03:16:55;;;;;;;3.53;1.73;;;4.80;99.90;;;;;;5016527;28;20461;-53
2022/04/11 03:19:21;;;;;;;2.80;1.40;;;4.90;99.90;;;;;;5016748;28;20442;-53
2022/04/11 03:21:50;;;;;;;3.77;2.00;;;4.90;99.90;;;;;;5016364;28;20450;-55
2022/04/11 03:24:16;;;;;;;3.10;1.70;;;4.90;99.90;;;;;;5016211;28;20457;-54
2022/04/11 03:26:43;;;;;;;3.23;1.93;;;4.80;99.90;;;;;;5015919;28;20442;-54
2022/04/11 03:29:10;;;;;;;5.17;2.47;;;4.90;99.90;;;;;;5015814;28;20485;-56
2022/04/11 03:31:37;;;;;;;1.70;1.10;;;4.90;99.90;;;;;;5015966;28;20498;-51
2022/04/11 03:34:04;;;;;;;3.73;1.70;;;4.80;99.90;;;;;;5016101;28;20434;-54
2022/04/11 03:36:30;;;;;;;2.33;1.70;;;4.80;99.90;;;;;;5016617;28;20434;-54
2022/04/11 03:38:59;;;;;;;6.13;2.10;;;4.80;99.90;;;;;;5016420;28;20450;-53
2022/04/11 03:41:26;;;;;;;5.80;1.50;;;4.80;99.90;;;;;;5016500;28;20462;-56
2022/04/11 03:43:52;;;;;;;5.53;2.60;;;4.80;99.90;;;;;;5016375;28;20489;-51
2022/04/11 03:46:19;;;;;;;2.37;1.50;;;4.70;99.90;;;;;;5016218;28;20448;-61
2022/04/11 03:48:48;;;;;;;4.20;2.03;;;4.70;99.90;;;;;;5016706;28;20450;-55
2022/04/11 03:51:14;;;;;;;3.73;1.70;;;4.70;99.90;;;;;;5016407;28;20430;-56
2022/04/11 03:53:42;;;;;;;7.47;2.43;;;4.70;99.90;;;;;;5016167;28;20434;-59
2022/04/11 03:56:13;;;;;;;8.07;2.77;;;4.70;99.90;;;;;;5016256;28;20453;-55
2022/04/11 03:58:40;;;;;;;2.83;1.50;;;4.60;99.90;;;;;;5015741;28;20454;-55
2022/04/11 04:01:07;;;;;;;10.80;2.20;;;4.60;99.90;;;;;;5015547;28;20434;-57
2022/04/11 04:03:33;;;;;;;3.57;1.80;;;4.60;99.90;;;;;;5015668;28;20521;-54
2022/04/11 04:06:00;;;;;;;3.17;2.17;;;4.60;99.90;;;;;;5018147;28;20449;-55
2022/04/11 04:08:27;;;;;;;2.97;2.00;;;4.50;99.90;;;;;;5019261;28;20465;-57
2022/04/11 04:10:53;;;;;;;4.90;2.43;;;4.50;99.90;;;;;;5019385;28;20422;-55
2022/04/11 04:13:21;;;;;;;3.47;1.70;;;4.40;99.90;;;;;;5019268;28;20468;-56
2022/04/11 04:15:48;;;;;;;4.60;2.10;;;4.40;99.90;;;;;;5019323;28;20457;-53
2022/04/11 04:18:16;;;;;;;3.47;1.87;;;4.40;99.90;;;;;;5019457;28;20484;-55
2022/04/11 04:20:43;;;;;;;5.43;1.60;;;4.40;99.90;;;;;;5019471;28;20446;-54
2022/04/11 04:23:09;;;;;;;10.00;2.80;;;4.40;99.90;;;;;;5019027;28;20516;-53
2022/04/11 04:25:37;;;;;;;4.07;2.40;;;4.40;99.90;;;;;;5019409;28;20435;-56
2022/04/11 04:28:05;;;;;;;7.30;1.80;;;4.40;99.90;;;;;;5018959;28;20473;-51
2022/04/11 04:30:33;;;;;;;4.70;2.20;;;4.30;99.90;;;;;;5019242;28;20458;-53
2022/04/11 04:33:00;;;;;;;4.03;2.30;;;4.30;99.90;;;;;;5019365;28;20477;-55
2022/04/11 04:35:27;;;;;;;7.73;2.60;;;4.30;99.90;;;;;;5019353;28;20453;-54
2022/04/11 04:37:54;;;;;;;5.13;1.73;;;4.30;99.90;;;;;;5101814;23;20479;-59
2022/04/11 04:40:21;;;;;;;4.63;2.90;;;4.20;99.90;;;;;;5038119;28;20472;-62
2022/04/11 04:42:48;;;;;;;4.70;1.83;;;4.30;99.90;;;;;;5038274;28;20469;-59
2022/04/11 04:45:16;;;;;;;5.30;2.90;;;4.30;99.90;;;;;;5038511;28;20440;-59
2022/04/11 04:47:47;;;;;;;5.23;2.13;;;4.30;99.90;;;;;;5038453;28;20472;-56
2022/04/11 04:50:14;;;;;;;5.00;2.20;;;4.30;99.90;;;;;;5037592;28;20445;-59
2022/04/11 04:52:41;;;;;;;3.70;2.03;;;4.30;99.90;;;;;;5037535;28;20473;-63
2022/04/11 04:55:09;;;;;;;2.30;1.53;;;4.30;99.90;;;;;;5037328;28;20971;-59
2022/04/11 04:57:36;;;;;;;4.17;2.30;;;4.40;99.90;;;;;;5037266;28;20524;-59
2022/04/11 05:00:03;;;;;;;5.67;2.27;;;4.40;99.90;;;;;;5037030;28;20433;-59
2022/04/11 05:02:35;;;;;;;4.83;2.30;;;4.30;99.90;;;;;;5036941;28;20472;-59
2022/04/11 05:05:06;;;;;;;4.03;2.10;;;4.30;99.90;;;;;;5037275;28;20437;-57
2022/04/11 05:07:33;;;;;;;3.97;2.27;;;4.30;99.90;;;;;;5037008;28;20464;-59
2022/04/11 05:09:59;;;;;;;4.10;2.00;;;4.30;99.90;;;;;;5037054;28;20421;-60
2022/04/11 05:12:27;;;;;;;8.90;2.47;;;4.30;99.90;;;;;;5036825;28;20425;-59
2022/04/11 05:14:57;;;;;;;7.00;2.53;;;4.30;99.90;;;;;;5036611;28;20466;-59
2022/04/11 05:17:28;;;;;;;4.73;2.40;;;4.30;99.90;;;;;;5035624;28;20453;-57
2022/04/11 05:19:54;;;;;;;6.90;3.43;;;4.30;99.90;;;;;;5036356;28;20437;-60
2022/04/11 05:22:25;;;;;;;3.50;2.27;;;4.40;99.90;;;;;;5036802;28;20908;-53
2022/04/11 05:24:51;;;;;;;4.60;2.40;;;4.30;99.90;;;;;;5036246;28;20465;-56
2022/04/11 05:27:18;;;;;;;4.63;3.57;;;4.40;99.90;;;;;;5036188;28;20453;-59
2022/04/11 05:29:45;;;;;;;13.23;5.10;;;4.40;99.90;;;;;;5035752;28;20765;-58
2022/04/11 05:32:11;;;;;;;6.10;2.40;;;4.40;99.90;;;;;;5035732;28;20449;-54
2022/04/11 05:34:38;;;;;;;3.20;2.60;;;4.40;99.90;;;;;;5035875;28;20453;-59
2022/04/11 05:37:06;;;;;;;3.60;2.80;;;4.40;99.90;;;;;;5035967;28;20448;-58
2022/04/11 05:39:34;;;;;;;8.43;2.70;;;4.40;99.90;;;;;;5036013;28;20521;-60
2022/04/11 05:42:00;;;;;;;5.53;2.63;;;4.40;99.90;;;;;;5035901;28;20465;-59
2022/04/11 05:44:27;;;;;;;4.90;2.27;;;4.40;99.90;;;;;;5036133;28;20481;-59
2022/04/11 05:46:54;;;;;;;6.53;2.60;;;4.40;99.90;;;;;;5036102;28;20429;-59
2022/04/11 05:49:21;;;;;;;3.23;2.50;;;4.50;99.90;;;;;;5036154;28;20468;-55
2022/04/11 05:51:48;;;;;;;7.83;3.00;;;4.50;99.90;;;;;;5036068;28;20502;-62
2022/04/11 05:54:16;;;;;;;4.93;3.30;;;4.50;99.90;;;;;;5035828;28;20441;-59
2022/04/11 05:56:44;;;;;;;5.80;3.00;;;4.50;99.90;;;;;;5035686;28;20448;-60
2022/04/11 05:59:11;;;;;;;6.87;3.17;;;4.60;99.90;;;;;;5035488;28;20461;-56
2022/04/11 06:01:38;;;;;;;4.17;2.90;;;4.70;99.90;;;;;;5035454;28;20484;-60
2022/04/11 06:04:05;;;;;;;3.40;2.50;;;4.70;99.90;;;;;;5035251;28;20480;-55
2022/04/11 06:06:31;;;;;;;6.60;2.87;;;4.70;99.90;;;;;;5035761;28;20429;-59
2022/04/11 06:08:58;;;;;;;5.97;3.00;;;4.80;99.90;;;;;;5035496;28;20496;-58
2022/04/11 06:11:25;;;;;;;11.03;2.40;;;4.80;99.90;;;;;;5035108;28;20425;-58
2022/04/11 06:13:53;;;;;;;4.13;2.40;;;4.90;99.90;;;;;;5035296;28;20460;-60
2022/04/11 06:16:19;;;;;;;5.90;3.23;;;4.90;99.90;;;;;;5034909;28;20485;-58
2022/04/11 06:18:46;;;;;;;6.43;2.80;;;5.00;99.90;;;;;;5034958;28;20467;-59
2022/04/11 06:21:13;;;;;;;3.20;2.40;;;5.10;99.90;;;;;;5035009;28;20437;-59
2022/04/11 06:23:39;;;;;;;13.70;3.63;;;5.20;99.90;;;;;;5035333;28;20469;-59
2022/04/11 06:26:06;;;;;;;3.20;2.33;;;5.20;99.90;;;;;;5035484;28;20445;-58
2022/04/11 06:28:33;;;;;;;4.73;3.50;;;5.30;99.90;;;;;;5034468;28;20461;-57
2022/04/11 06:31:01;;;;;;;8.00;2.30;;;5.40;99.90;;;;;;5035377;28;20457;-55
2022/04/11 06:33:27;;;;;;;4.33;2.50;;;5.40;99.90;;;;;;5034828;28;20462;-60
2022/04/11 06:35:56;;;;;;;5.33;2.70;;;5.50;99.90;;;;;;5035170;28;20441;-58
2022/04/11 06:38:22;;;;;;;3.70;2.20;;;5.60;99.90;;;;;;5035208;28;20465;-58
2022/04/11 06:40:51;;;;;;;6.00;2.73;;;5.70;99.90;;;;;;5035174;28;20490;-59
2022/04/11 06:43:18;;;;;;;4.93;2.40;;;5.80;99.90;;;;;;5034971;28;20455;-59
2022/04/11 06:45:46;;;;;;;11.83;3.63;;;5.80;99.90;;;;;;5034637;28;20436;-60
2022/04/11 06:48:14;;;;;;;6.20;2.57;;;5.90;99.90;;;;;;5034706;28;20446;-57
2022/04/11 06:50:42;;;;;;;5.87;2.40;;;6.10;99.90;;;;;;5035190;28;20796;-60
2022/04/11 06:53:09;;;;;;;5.77;3.80;;;6.20;99.90;;;;;;5035099;28;20429;-58
2022/04/11 06:55:37;;;;;;;3.03;1.83;;;6.30;99.90;;;;;;5035311;28;20468;-58
2022/04/11 06:58:04;;;;;;;4.40;1.97;;;6.40;99.90;;;;;;5034879;28;20468;-59
2022/04/11 07:00:31;;;;;;;3.20;1.70;;;6.50;99.90;;;;;;5035306;28;20436;-55
2022/04/11 07:03:00;;;;;;;4.17;1.73;;;6.60;99.90;;;;;;5034670;28;20437;-60
2022/04/11 07:05:28;;;;;;;3.30;1.77;;;6.60;99.90;;;;;;5034590;28;20507;-60
2022/04/11 07:07:55;;;;;;;3.67;3.33;;;6.70;99.90;;;;;;5035084;28;20437;-59
2022/04/11 07:10:22;;;;;;;1.60;1.10;;;6.70;99.90;;;;;;5034630;28;21003;-61
2022/04/11 07:12:49;;;;;;;2.57;1.63;;;6.70;99.90;;;;;;5034793;28;20441;-60
2022/04/11 07:15:18;;;;;;;2.27;1.33;;;6.70;99.90;;;;;;5034761;28;20469;-58
2022/04/11 07:17:49;;;;;;;4.70;1.97;;;6.70;99.90;;;;;;5034972;28;20452;-59
2022/04/11 07:20:16;;;;;;;2.90;1.50;;;6.80;99.90;;;;;;5034931;28;20460;-59
2022/04/11 07:22:44;;;;;;;4.20;1.40;;;6.80;99.90;;;;;;5035120;28;20471;-60
2022/04/11 07:25:12;;;;;;;2.27;1.30;;;6.90;99.90;;;;;;5035255;28;20477;-60
2022/04/11 07:27:39;;;;;;;5.27;2.60;;;6.90;99.90;;;;;;5035591;28;20468;-59
2022/04/11 07:30:07;;;;;;;1.60;1.23;;;7.00;99.90;;;;;;5034817;28;20942;-59
2022/04/11 07:32:33;;;;;;;5.00;0.90;;;7.10;99.90;;;;;;5035064;28;20464;-59
2022/04/11 07:35:02;;;;;;;1.53;1.30;;;7.20;99.90;;;;;;5034484;28;20525;-57
2022/04/11 07:37:30;;;;;;;2.00;1.20;;;7.30;99.90;;;;;;5034928;28;20449;-60
2022/04/11 07:39:58;;;;;;;4.40;1.43;;;7.40;99.90;;;;;;5035081;28;20503;-59
2022/04/11 07:42:25;;;;;;;5.13;1.67;;;7.50;99.90;;;;;;5038777;28;20441;-59
2022/04/11 07:44:52;;;;;;;1.93;1.33;;;7.60;99.90;;;;;;5038360;28;20491;-57
2022/04/11 07:47:18;;;;;;;1.87;1.37;;;7.70;99.90;;;;;;5038122;28;20457;-58
2022/04/11 07:49:45;;;;;;;3.10;1.17;;;7.80;99.90;;;;;;5038185;28;20493;-59
2022/04/11 07:52:12;;;;;;;1.70;1.17;;;7.70;99.90;;;;;;5039073;28;20437;-63
2022/04/11 07:54:39;;;;;;;1.67;1.10;;;7.80;99.90;;;;;;5038418;28;20465;-59
2022/04/11 07:57:08;;;;;;;2.90;1.23;;;7.90;99.90;;;;;;5038301;28;20472;-60
2022/04/11 07:59:35;;;;;;;3.20;1.40;;;8.00;99.90;;;;;;5038742;28;20500;-59
2022/04/11 08:02:02;;;;;;;2.80;1.50;;;8.10;99.90;;;;;;5038276;28;20441;-60
2022/04/11 08:04:28;;;;;;;2.10;1.67;;;8.30;99.90;;;;;;5038221;28;20491;-59
2022/04/11 08:06:55;;;;;;;1.33;1.00;;;8.70;99.90;;;;;;5038434;28;20908;-60
2022/04/11 08:09:22;;;;;;;2.47;1.37;;;9.80;99.90;;;;;;5038499;28;20524;-60
2022/04/11 08:11:49;;;;;;;2.73;1.17;;;11.00;97.40;;;;;;5038692;28;20448;-59
2022/04/11 08:14:17;;;;;;;4.27;1.90;;;12.40;90.90;;;;;;5038369;28;20461;-60
2022/04/11 08:16:44;;;;;;;4.73;1.63;;;13.40;83.50;;;;;;5037530;28;20504;-59
2022/04/11 08:19:10;;;;;;;3.23;0.93;;;14.70;75.90;;;;;;5036733;28;20465;-61
2022/04/11 08:21:38;;;;;;;1.60;1.17;;;15.60;66.30;;;;;;5036079;28;20456;-59
2022/04/11 08:24:06;;;;;;;4.90;1.60;;;16.70;62.10;;;;;;5034774;28;20480;-59
2022/04/11 08:26:32;;;;;;;2.03;1.60;;;17.80;57.40;;;;;;5033722;28;20443;-58
2022/04/11 08:28:59;;;;;;;3.40;1.77;;;18.80;54.40;;;;;;5032303;28;20479;-60
2022/04/11 08:31:27;;;;;;;2.40;1.60;;;19.60;51.80;;;;;;5032740;28;20803;-59
2022/04/11 08:33:54;;;;;;;1.33;1.20;;;20.40;50.10;;;;;;5031832;28;20460;-59
2022/04/11 08:36:20;;;;;;;1.93;1.30;;;20.90;47.40;;;;;;5031349;28;20419;-60
2022/04/11 08:38:48;;;;;;;5.27;2.00;;;20.90;44.30;;;;;;5031296;28;20503;-59
2022/04/11 08:41:17;;;;;;;4.50;1.50;;;20.40;43.60;;;;;;5031943;28;20476;-58
2022/04/11 08:43:45;;;;;;;2.27;1.10;;;20.20;43.30;;;;;;5031444;28;20445;-57
2022/04/11 08:46:15;;;;;;;3.73;1.50;;;20.30;43.10;;;;;;5031667;28;20493;-59
2022/04/11 08:48:44;;;;;;;2.70;1.17;;;20.50;42.60;;;;;;5030604;28;20441;-59
2022/04/11 08:51:11;;;;;;;2.60;1.70;;;20.60;42.70;;;;;;5030562;28;20455;-60
2022/04/11 08:53:38;;;;;;;1.90;1.40;;;20.90;42.30;;;;;;5030982;28;20472;-59
2022/04/11 08:56:08;;;;;;;1.87;1.10;;;21.20;42.00;;;;;;5029216;28;21022;-57
2022/04/11 08:58:34;;;;;;;2.03;1.13;;;21.20;41.00;;;;;;5030491;28;20445;-57
2022/04/11 09:01:03;;;;;;;3.40;1.83;;;21.10;39.30;;;;;;5030435;28;20445;-60
2022/04/11 09:03:30;;;;;;;2.50;1.73;;;20.80;40.20;;;;;;5030754;28;20512;-62
2022/04/11 09:06:07;;;;;;;1.83;1.37;;;20.80;40.20;;;;;;5030581;28;20524;-59
2022/04/11 09:08:42;;;;;;;2.70;1.20;;;20.30;40.00;;;;;;5031217;28;20764;-58
2022/04/11 09:11:10;;;;;;;2.63;1.80;;;20.20;40.70;;;;;;5031435;28;20529;-59
2022/04/11 09:13:53;;;;;;;2.07;1.30;;;20.40;39.50;;;;;;5031273;28;20461;-59
2022/04/11 09:16:20;;;;;;;2.00;1.40;;;20.20;38.60;;;;;;5031400;28;20493;-60
2022/04/11 09:18:49;;;;;;;2.00;1.40;;;19.90;39.30;;;;;;5030651;28;20513;-59
2022/04/11 09:21:17;;;;;;;4.10;1.67;;;19.80;38.70;;;;;;5032039;28;20480;-60
2022/04/11 09:23:44;;;;;;;3.03;1.40;;;20.00;39.40;;;;;;5031362;28;20445;-61
2022/04/11 09:26:19;;;;;;;3.43;1.70;;;20.40;40.60;;;;;;5030207;28;20481;-59
2022/04/11 09:28:58;;;;;;;2.70;1.63;;;20.70;40.00;;;;;;5030464;28;20444;-59
2022/04/11 09:31:25;;;;;;;1.83;1.30;;;20.70;38.80;;;;;;5030615;28;20457;-60
2022/04/11 09:33:52;;;;;;;1.80;1.50;;;20.60;38.30;;;;;;5030072;28;20505;-60
2022/04/11 09:36:21;;;;;;;3.20;1.47;;;20.60;38.30;;;;;;5030555;28;20928;-55
2022/04/11 09:38:58;;;;;;;1.97;1.53;;;20.60;39.00;;;;;;5030792;28;20473;-58
2022/04/11 09:41:28;;;;;;;2.50;1.37;;;20.70;38.50;;;;;;5030257;28;20429;-59
2022/04/11 09:43:55;;;;;;;4.50;1.40;;;20.90;38.40;;;;;;5030013;28;20441;-57
2022/04/11 09:46:22;;;;;;;4.03;2.00;;;21.00;38.90;;;;;;5029622;28;20477;-58
2022/04/11 09:48:53;;;;;;;2.60;1.60;;;21.20;38.80;;;;;;5029862;28;20453;-59
2022/04/11 09:51:21;;;;;;;2.10;1.60;;;21.30;37.70;;;;;;5030045;28;20445;-59
2022/04/11 09:53:48;;;;;;;2.13;1.80;;;20.90;37.40;;;;;;5029868;28;20453;-60
2022/04/11 09:56:17;;;;;;;3.23;1.50;;;19.90;37.70;;;;;;5032551;28;20451;-58
2022/04/11 09:58:44;;;;;;;3.30;2.30;;;18.80;38.80;;;;;;5032837;28;20488;-59
2022/04/11 10:01:11;;;;;;;2.43;1.73;;;17.90;40.60;;;;;;5033210;28;20445;-57
2022/04/11 10:03:39;;;;;;;3.27;1.17;;;17.10;40.80;;;;;;5033823;28;20449;-59
2022/04/11 10:06:09;;;;;;;2.63;1.53;;;16.50;41.60;;;;;;5034136;28;20516;-58
2022/04/11 10:08:40;;;;;;;2.83;1.10;;;16.40;42.80;;;;;;5034590;28;20469;-60
2022/04/11 10:11:08;;;;;;;1.93;1.20;;;16.30;42.80;;;;;;5034434;28;21015;-58
2022/04/11 10:13:37;;;;;;;1.50;1.40;;;16.50;43.20;;;;;;5034609;28;20607;-60
2022/04/11 10:16:06;;;;;;;2.00;1.80;;;17.00;43.50;;;;;;5033705;28;20460;-59
2022/04/11 10:18:35;;;;;;;2.90;1.30;;;17.40;42.30;;;;;;5033365;28;20445;-60
2022/04/11 10:21:09;;;;;;;2.40;1.57;;;17.70;42.10;;;;;;5033164;28;20465;-61
2022/04/11 10:23:52;;;;;;;2.10;1.43;;;17.60;41.20;;;;;;5034471;28;20472;-59
2022/04/11 10:26:19;;;;;;;4.00;1.60;;;16.70;41.70;;;;;;5034067;28;20488;-61
2022/04/11 10:28:48;;;;;;;3.73;2.23;;;16.90;42.80;;;;;;5033462;28;20445;-60
2022/04/11 10:31:16;;;;;;;5.80;2.17;;;17.50;42.60;;;;;;5033441;28;20997;-59
2022/04/11 10:33:45;;;;;;;2.40;1.77;;;17.70;41.10;;;;;;5032958;28;20445;-60
2022/04/11 10:36:33;;;;;;;2.40;1.20;;;17.20;41.00;;;;;;5033383;28;20465;-58
2022/04/11 10:39:29;;;;;;;2.23;1.60;;;16.90;41.70;;;;;;5033246;28;20564;-57
2022/04/11 10:42:16;;;;;;;3.00;1.40;;;16.10;41.90;;;;;;5034035;28;20436;-57
2022/04/11 10:44:45;;;;;;;2.03;1.63;;;15.40;42.20;;;;;;5034701;28;20468;-58
2022/04/11 10:47:31;;;;;;;4.53;2.77;;;15.20;43.10;;;;;;5034463;28;20453;-60
2022/04/11 10:50:28;;;;;;;3.10;1.20;;;14.80;43.60;;;;;;5034842;28;20513;-56
2022/04/11 10:53:15;;;;;;;1.30;1.00;;;13.90;44.20;;;;;;5035372;28;20453;-58
2022/04/11 10:56:08;;;;;;;3.87;1.80;;;13.80;45.30;;;;;;5035249;28;20460;-56
2022/04/11 10:58:49;;;;;;;3.23;1.43;;;14.20;46.80;;;;;;5034616;28;20436;-59
2022/04/11 11:01:32;;;;;;;2.60;1.57;;;14.50;45.70;;;;;;5034814;28;20472;-61
2022/04/11 11:04:00;;;;;;;2.03;1.17;;;14.30;45.10;;;;;;5034504;28;20457;-60
2022/04/11 11:06:27;;;;;;;1.70;1.50;;;14.20;46.10;;;;;;5034601;28;20552;-59
2022/04/11 11:08:53;;;;;;;2.43;1.60;;;14.30;46.10;;;;;;5035455;28;20455;-60
2022/04/11 11:11:24;;;;;;;3.20;1.40;;;14.20;46.00;;;;;;5035527;28;20468;-60
2022/04/11 11:13:52;;;;;;;2.23;1.60;;;13.90;46.10;;;;;;5035235;28;20951;-58
2022/04/11 11:16:36;;;;;;;1.63;1.23;;;13.40;46.60;;;;;;5038246;28;20471;-55
2022/04/11 11:19:13;;;;;;;4.27;1.60;;;13.00;47.60;;;;;;5039414;28;20442;-59
2022/04/11 11:22:00;;;;;;;2.13;1.40;;;13.20;48.20;;;;;;5040051;28;20543;-59
2022/04/11 11:24:26;;;;;;;1.50;1.20;;;13.10;47.90;;;;;;5039242;28;20447;-58
2022/04/11 11:26:57;;;;;;;1.50;1.13;;;13.30;48.50;;;;;;5038821;28;20480;-58
2022/04/11 11:29:27;;;;;;;3.90;1.43;;;13.70;49.40;;;;;;5038485;28;20429;-58
2022/04/11 11:31:58;;;;;;;2.23;1.90;;;14.10;49.40;;;;;;5038136;28;20456;-60
2022/04/11 11:34:26;;;;;;;2.23;1.87;;;14.20;47.40;;;;;;5038685;28;20489;-57
2022/04/11 11:36:58;;;;;;;4.50;1.00;;;14.00;48.00;;;;;;5037698;28;20437;-60
2022/04/11 11:39:29;;;;;;;2.90;1.40;;;14.20;48.00;;;;;;5038678;28;20433;-56
2022/04/11 11:42:03;;;;;;;5.90;2.30;;;14.30;47.20;;;;;;5038190;28;20523;-58
2022/04/11 11:44:31;;;;;;;3.10;1.37;;;14.10;46.80;;;;;;5038169;28;20429;-58
2022/04/11 11:46:59;;;;;;;2.90;1.40;;;13.90;47.80;;;;;;5037525;28;20488;-58
2022/04/11 11:49:27;;;;;;;2.43;1.70;;;13.50;48.90;;;;;;5038460;28;20449;-59
2022/04/11 11:51:55;;;;;;;1.80;1.13;;;13.30;49.50;;;;;;5038498;28;20480;-58
2022/04/11 11:54:34;;;;;;;1.63;1.10;;;13.20;49.40;;;;;;5038390;28;20449;-59
2022/04/11 11:57:03;;;;;;;1.73;1.63;;;13.10;49.50;;;;;;5038506;28;20525;-60
2022/04/11 11:59:30;;;;;;;2.20;1.63;;;13.00;49.80;;;;;;5038338;28;20457;-59
2022/04/11 12:04:41;;;;;;;2.23;1.53;;;13.10;50.30;;;;;;5038851;28;20420;-57
2022/04/11 12:07:08;;;;;;;5.73;1.30;;;12.90;50.00;;;;;;5038500;28;20508;-57
2022/04/11 12:09:36;;;;;;;1.60;1.30;;;12.90;50.70;;;;;;5037928;28;20476;-59
2022/04/11 12:12:05;;;;;;;3.83;1.97;;;12.80;50.90;;;;;;5038491;28;20465;-59
2022/04/11 12:15:05;;;;;;;2.90;1.30;;;12.90;50.80;;;;;;5038732;28;20500;-60
2022/04/11 12:17:34;;;;;;;2.03;1.33;;;12.80;50.80;;;;;;5038537;28;20441;-59
2022/04/11 12:20:13;;;;;;;7.10;2.20;;;12.80;51.60;;;;;;5038175;28;20464;-59
2022/04/11 12:22:41;;;;;;;3.40;1.43;;;12.90;51.60;;;;;;5038072;28;20488;-57
2022/04/11 12:25:21;;;;;;;2.70;1.73;;;13.00;50.90;;;;;;5038289;28;20457;-56
2022/04/11 12:27:50;;;;;;;3.70;2.47;;;13.00;51.10;;;;;;5038317;28;20437;-59
2022/04/11 12:30:17;;;;;;;2.97;1.60;;;12.90;51.10;;;;;;5037687;28;20437;-58
2022/04/11 12:32:44;;;;;;;5.07;1.60;;;12.90;51.80;;;;;;5037135;28;20429;-55
2022/04/11 12:35:15;;;;;;;3.23;1.33;;;12.70;51.10;;;;;;5037787;28;20441;-56
2022/04/11 12:37:48;;;;;;;2.10;1.53;;;12.50;51.50;;;;;;5037716;28;20441;-59
2022/04/11 12:40:15;;;;;;;3.40;1.67;;;12.60;51.40;;;;;;5037942;28;20436;-56
2022/04/11 12:42:42;;;;;;;2.03;1.50;;;12.70;52.00;;;;;;5034349;28;20481;-59
2022/04/11 12:45:14;;;;;;;2.80;1.67;;;12.80;51.60;;;;;;5031358;28;20484;-60
2022/04/11 12:48:00;;;;;;;5.40;1.67;;;12.90;51.70;;;;;;5034658;28;20425;-57
2022/04/11 12:50:27;;;;;;;2.03;1.37;;;13.00;51.40;;;;;;5037306;28;20441;-59
2022/04/11 12:52:55;;;;;;;3.97;1.30;;;13.20;51.60;;;;;;5038052;28;20445;-59
2022/04/11 12:55:25;;;;;;;5.20;1.63;;;13.20;51.10;;;;;;5037978;28;20442;-60
2022/04/11 12:58:04;;;;;;;3.17;1.47;;;13.10;50.70;;;;;;5037841;28;20438;-58
2022/04/11 13:00:33;;;;;;;2.13;1.50;;;13.10;51.70;;;;;;5031429;28;20440;-58
2022/04/11 13:03:01;;;;;;;4.90;1.97;;;13.10;51.40;;;;;;5016563;28;20459;-55
2022/04/11 13:05:29;;;;;;;2.60;2.03;;;13.10;52.40;;;;;;5016462;28;20539;-59